Time;durP1;ratioP1;P1;durP2;ratioP2;P2;SDS_P1;SDS_P2;PMS_P1;PMS_P2;Temp;Humidity;BMP_temperature;BMP_pressure;BME280_temperature;BME280_humidity;BME280_pressure;Samples;Min_cycle;Max_cycle;Signal;HPM_P1;HPM_P2
2023/06/18 00:01:15;;;;;;;8.10;6.83;;;19.60;99.90;;;;;;5016027;28;20486;-80
2023/06/18 00:03:41;;;;;;;10.00;7.43;;;19.50;99.90;;;;;;5019730;28;20492;-81
2023/06/18 00:06:08;;;;;;;9.17;7.67;;;19.50;99.90;;;;;;5035600;28;20536;-81
2023/06/18 00:08:36;;;;;;;9.80;6.83;;;19.50;99.90;;;;;;5035551;28;20456;-81
2023/06/18 00:11:03;;;;;;;10.17;7.20;;;19.50;99.90;;;;;;5035873;28;20494;-80
2023/06/18 00:13:30;;;;;;;8.10;7.30;;;19.50;99.90;;;;;;5035188;28;20480;-82
2023/06/18 00:15:57;;;;;;;10.90;7.80;;;19.40;99.90;;;;;;5034966;28;20552;-81
2023/06/18 00:18:24;;;;;;;9.13;6.10;;;19.40;99.90;;;;;;5035747;28;20453;-80
2023/06/18 00:20:50;;;;;;;9.30;7.23;;;19.40;99.90;;;;;;5035896;28;20472;-78
2023/06/18 00:23:17;;;;;;;9.60;7.37;;;19.30;99.90;;;;;;5036100;28;20452;-80
2023/06/18 00:25:45;;;;;;;8.50;6.83;;;19.30;99.90;;;;;;5015873;28;20454;-81
2023/06/18 00:28:12;;;;;;;7.57;6.87;;;19.30;99.90;;;;;;5016095;28;20464;-82
2023/06/18 00:30:39;;;;;;;9.47;7.70;;;19.30;99.90;;;;;;5015971;28;20496;-80
2023/06/18 00:33:06;;;;;;;8.17;6.70;;;19.30;99.90;;;;;;5017458;28;20555;-81
2023/06/18 00:35:33;;;;;;;9.60;6.63;;;19.30;99.90;;;;;;5016257;28;20497;-82
2023/06/18 00:38:02;;;;;;;8.17;6.60;;;19.20;1.00;;;;;;5020268;28;20492;-80
2023/06/18 00:40:29;;;;;;;8.90;6.90;;;19.20;99.90;;;;;;5017929;28;20496;-82
2023/06/18 00:42:57;;;;;;;7.93;6.57;;;19.10;99.90;;;;;;5015825;28;20823;-82
2023/06/18 00:45:28;;;;;;;8.70;6.77;;;19.10;99.90;;;;;;5015655;28;20464;-82
2023/06/18 00:47:55;;;;;;;8.30;6.93;;;19.10;99.90;;;;;;5030525;28;20461;-81
2023/06/18 00:50:26;;;;;;;8.63;6.80;;;19.00;1.00;;;;;;5035437;28;20476;-83
2023/06/18 00:52:59;;;;;;;8.20;6.13;;;19.00;1.00;;;;;;5034944;28;20491;-81
2023/06/18 00:55:28;;;;;;;9.00;6.00;;;19.00;1.00;;;;;;5034193;28;20468;-82
2023/06/18 00:58:02;;;;;;;7.80;6.50;;;18.90;1.00;;;;;;5034851;28;20821;-81
2023/06/18 01:00:32;;;;;;;9.67;7.00;;;18.90;1.00;;;;;;5024100;28;20472;-81
2023/06/18 01:02:59;;;;;;;7.83;6.40;;;18.90;1.00;;;;;;5035814;28;20469;-82
2023/06/18 01:05:31;;;;;;;10.00;6.90;;;18.90;1.00;;;;;;5034221;28;20832;-81
2023/06/18 01:07:59;;;;;;;8.27;6.73;;;18.80;1.00;;;;;;5034929;28;20484;-82
2023/06/18 01:10:28;;;;;;;7.93;6.00;;;18.80;1.00;;;;;;5034513;28;20872;-81
2023/06/18 01:12:58;;;;;;;9.10;6.57;;;18.80;1.00;;;;;;5017590;28;20465;-80
2023/06/18 01:15:27;;;;;;;10.07;7.03;;;18.80;1.00;;;;;;5015141;28;20555;-81
2023/06/18 01:17:56;;;;;;;7.43;6.27;;;18.70;1.00;;;;;;5031300;28;20452;-80
2023/06/18 01:20:25;;;;;;;9.80;6.47;;;18.70;1.00;;;;;;5034247;28;20477;-80
2023/06/18 01:22:59;;;;;;;9.23;6.83;;;18.70;1.00;;;;;;5034514;28;20448;-80
2023/06/18 01:25:27;;;;;;;10.67;7.27;;;18.60;1.00;;;;;;5031704;28;20507;-80
2023/06/18 01:27:56;;;;;;;7.50;6.47;;;18.60;1.00;;;;;;5018343;28;20549;-80
2023/06/18 01:30:24;;;;;;;7.63;6.03;;;18.60;1.00;;;;;;5019436;28;20507;-81
2023/06/18 01:32:54;;;;;;;9.80;6.90;;;18.60;1.00;;;;;;5024548;28;20975;-80
2023/06/18 01:35:21;;;;;;;9.67;7.70;;;18.50;1.00;;;;;;5038035;28;20464;-80
2023/06/18 01:38:05;;;;;;;7.93;6.57;;;18.50;1.00;;;;;;5037813;28;20459;-81
2023/06/18 01:40:38;;;;;;;8.00;6.50;;;18.50;1.00;;;;;;5036878;28;20481;-80
2023/06/18 01:43:11;;;;;;;8.37;6.40;;;18.40;1.00;;;;;;5036488;28;20962;-80
2023/06/18 01:45:43;;;;;;;7.70;6.30;;;18.40;1.00;;;;;;5037439;28;20448;-80
2023/06/18 01:48:12;;;;;;;9.23;7.30;;;18.30;1.00;;;;;;5026825;28;20449;-80
2023/06/18 01:50:40;;;;;;;8.50;7.20;;;18.30;1.00;;;;;;5018204;28;20473;-79
2023/06/18 01:53:08;;;;;;;7.43;6.30;;;18.30;1.00;;;;;;5017579;28;20457;-80
2023/06/18 01:55:37;;;;;;;7.73;6.60;;;18.30;1.00;;;;;;5017152;28;20464;-81
2023/06/18 01:58:04;;;;;;;9.40;6.60;;;18.30;1.00;;;;;;5025991;28;20464;-81
2023/06/18 02:00:31;;;;;;;9.23;6.57;;;18.20;1.00;;;;;;5029324;28;20855;-79
2023/06/18 02:02:59;;;;;;;8.40;6.33;;;18.20;1.00;;;;;;5035696;28;20463;-80
2023/06/18 02:05:26;;;;;;;8.20;6.53;;;18.20;1.00;;;;;;5036827;28;20453;-81
2023/06/18 02:07:53;;;;;;;8.20;6.87;;;18.20;1.00;;;;;;5036964;28;20456;-80
2023/06/18 02:10:20;;;;;;;9.47;6.80;;;18.10;28.80;;;;;;5036640;28;20464;-81
2023/06/18 02:12:47;;;;;;;9.77;7.60;;;18.10;66.30;;;;;;5037198;28;20469;-80
2023/06/18 02:15:14;;;;;;;9.67;6.97;;;18.10;35.50;;;;;;5036752;28;20459;-80
2023/06/18 02:17:41;;;;;;;8.00;6.90;;;18.00;99.70;;;;;;5035510;28;20459;-80
2023/06/18 02:20:11;;;;;;;9.30;7.20;;;18.00;99.90;;;;;;5035801;28;20986;-79
2023/06/18 02:22:38;;;;;;;8.10;6.60;;;18.00;52.50;;;;;;5037017;28;20463;-80
2023/06/18 02:25:06;;;;;;;7.40;6.60;;;18.00;99.90;;;;;;5036849;28;20491;-80
2023/06/18 02:27:32;;;;;;;10.17;7.13;;;18.00;99.90;;;;;;5037255;28;20471;-79
2023/06/18 02:30:00;;;;;;;7.30;6.30;;;18.00;99.90;;;;;;5037503;28;20491;-80
2023/06/18 02:32:28;;;;;;;9.67;6.50;;;18.00;99.90;;;;;;5037758;28;20980;-82
2023/06/18 02:34:55;;;;;;;6.90;5.47;;;17.90;99.90;;;;;;5035063;28;20483;-81
2023/06/18 02:37:23;;;;;;;7.20;6.00;;;17.90;99.90;;;;;;5036261;28;20455;-82
2023/06/18 02:39:50;;;;;;;7.30;6.20;;;17.90;99.90;;;;;;5037316;28;20853;-80
2023/06/18 02:42:20;;;;;;;10.23;6.90;;;17.90;99.90;;;;;;5037336;28;20459;-81
2023/06/18 02:44:48;;;;;;;9.70;6.53;;;17.90;1.00;;;;;;5037179;28;20531;-80
2023/06/18 02:47:14;;;;;;;7.47;6.17;;;17.90;30.10;;;;;;5036898;28;20530;-80
2023/06/18 02:49:41;;;;;;;9.80;6.50;;;17.90;7.30;;;;;;5036982;28;20486;-80
2023/06/18 02:52:08;;;;;;;8.23;7.00;;;17.90;34.90;;;;;;5036855;28;20456;-80
2023/06/18 02:54:37;;;;;;;6.83;6.03;;;17.90;26.10;;;;;;5037098;28;20812;-80
2023/06/18 02:57:04;;;;;;;6.70;6.03;;;17.90;89.50;;;;;;5016854;28;21001;-80
2023/06/18 02:59:31;;;;;;;8.70;6.57;;;17.90;75.60;;;;;;5016748;28;20495;-81
2023/06/18 03:01:57;;;;;;;9.57;7.57;;;17.90;18.40;;;;;;5017303;28;20945;-80
2023/06/18 03:04:24;;;;;;;8.53;6.77;;;17.90;34.40;;;;;;5016756;28;20489;-80
2023/06/18 03:06:51;;;;;;;10.70;7.43;;;17.90;92.00;;;;;;5016010;28;20464;-80
2023/06/18 03:09:18;;;;;;;8.13;6.97;;;17.90;99.90;;;;;;5017073;28;20863;-80
2023/06/18 03:11:46;;;;;;;8.57;5.97;;;17.90;99.90;;;;;;5016610;28;20468;-80
2023/06/18 03:14:13;;;;;;;8.33;6.70;;;17.90;99.90;;;;;;5017276;28;20437;-79
2023/06/18 03:16:40;;;;;;;6.63;5.70;;;17.90;90.40;;;;;;5022669;28;20494;-80
2023/06/18 03:19:06;;;;;;;7.90;6.50;;;17.90;99.90;;;;;;5017006;28;20466;-80
2023/06/18 03:21:34;;;;;;;9.30;6.10;;;17.90;99.90;;;;;;5016884;28;20548;-80
2023/06/18 03:24:01;;;;;;;9.77;7.63;;;17.90;99.90;;;;;;5016417;28;20563;-80
2023/06/18 03:26:29;;;;;;;8.60;6.57;;;17.90;99.90;;;;;;5016316;28;20553;-80
2023/06/18 03:28:58;;;;;;;7.60;6.17;;;17.90;85.10;;;;;;5016537;28;20457;-79
2023/06/18 03:31:26;;;;;;;7.63;5.63;;;17.90;99.90;;;;;;5027543;28;20940;-80
2023/06/18 03:33:53;;;;;;;7.70;6.90;;;17.90;99.00;;;;;;5036540;28;20452;-80
2023/06/18 03:36:20;;;;;;;9.20;7.30;;;17.90;99.90;;;;;;5036659;28;20451;-80
2023/06/18 03:38:46;;;;;;;8.47;7.20;;;17.90;99.90;;;;;;5036710;28;20546;-80
2023/06/18 03:41:14;;;;;;;8.07;6.70;;;17.90;99.90;;;;;;5036768;28;20499;-80
2023/06/18 03:43:41;;;;;;;7.90;6.90;;;18.00;99.90;;;;;;5023523;28;20465;-79
2023/06/18 03:46:09;;;;;;;7.17;6.47;;;18.00;2.10;;;;;;5016899;28;20463;-79
2023/06/18 03:48:37;;;;;;;12.13;7.13;;;18.00;1.00;;;;;;5035684;28;20979;-79
2023/06/18 03:51:04;;;;;;;7.73;6.80;;;18.00;1.00;;;;;;5035951;28;20467;-79
2023/06/18 03:53:36;;;;;;;7.60;6.80;;;18.00;1.00;;;;;;5036308;28;20828;-80
2023/06/18 03:56:03;;;;;;;7.13;6.43;;;17.90;19.30;;;;;;5035673;28;20455;-80
2023/06/18 03:58:30;;;;;;;7.30;6.10;;;18.00;1.00;;;;;;5036099;28;20452;-81
2023/06/18 04:00:57;;;;;;;7.37;5.73;;;18.00;1.00;;;;;;5030114;28;20471;-79
2023/06/18 04:03:25;;;;;;;9.70;5.87;;;18.00;8.90;;;;;;5034272;28;21026;-80
2023/06/18 04:05:52;;;;;;;7.60;6.27;;;18.00;1.00;;;;;;5019679;28;20492;-79
2023/06/18 04:08:19;;;;;;;9.20;6.80;;;18.00;1.00;;;;;;5017589;28;20460;-79
2023/06/18 04:10:47;;;;;;;7.70;6.10;;;18.10;1.40;;;;;;5015327;28;20484;-80
2023/06/18 04:13:16;;;;;;;11.93;6.00;;;18.00;45.70;;;;;;5015207;28;20861;-79
2023/06/18 04:15:43;;;;;;;7.17;5.70;;;18.10;99.90;;;;;;5014589;28;20503;-79
2023/06/18 04:18:11;;;;;;;6.60;5.83;;;18.10;99.90;;;;;;5025365;28;20497;-80
2023/06/18 04:20:39;;;;;;;8.60;6.43;;;18.20;1.00;;;;;;5014932;28;20472;-80
2023/06/18 04:23:06;;;;;;;8.90;6.73;;;18.20;56.90;;;;;;5015262;28;20452;-80
2023/06/18 04:25:33;;;;;;;6.90;6.20;;;18.20;74.10;;;;;;5014565;28;20488;-80
2023/06/18 04:28:00;;;;;;;8.77;7.30;;;18.30;99.90;;;;;;5015201;28;20463;-80
2023/06/18 04:30:30;;;;;;;8.00;6.80;;;18.30;99.90;;;;;;5024432;28;20479;-80
2023/06/18 04:32:57;;;;;;;9.13;6.90;;;18.40;99.90;;;;;;5021303;28;20492;-81
2023/06/18 04:35:23;;;;;;;8.27;7.10;;;18.40;99.90;;;;;;5015761;28;20453;-80
2023/06/18 04:37:52;;;;;;;9.63;7.60;;;18.40;99.90;;;;;;5015841;28;20454;-80
2023/06/18 04:40:19;;;;;;;7.97;6.30;;;18.50;99.90;;;;;;5015542;28;20507;-80
2023/06/18 04:42:47;;;;;;;9.00;6.40;;;18.50;99.90;;;;;;5015725;28;20448;-80
2023/06/18 04:45:14;;;;;;;7.77;6.67;;;18.60;99.90;;;;;;5016046;28;20504;-80
2023/06/18 04:47:40;;;;;;;9.37;7.00;;;18.60;99.90;;;;;;5034239;28;20555;-79
2023/06/18 04:50:08;;;;;;;7.43;6.47;;;18.70;99.90;;;;;;5017842;28;20916;-81
2023/06/18 04:52:35;;;;;;;7.43;6.70;;;18.70;99.90;;;;;;5015084;28;20453;-79
2023/06/18 04:55:04;;;;;;;8.77;7.10;;;18.80;99.90;;;;;;5015228;28;20446;-81
2023/06/18 04:57:30;;;;;;;7.70;6.53;;;18.80;99.90;;;;;;5015123;28;20456;-80
2023/06/18 04:59:57;;;;;;;7.90;6.50;;;18.90;99.90;;;;;;5016898;28;20572;-80
2023/06/18 05:02:25;;;;;;;6.73;5.67;;;18.90;99.90;;;;;;5035327;28;20436;-80
2023/06/18 05:04:52;;;;;;;7.57;6.70;;;19.00;99.90;;;;;;5034926;28;20488;-79
2023/06/18 05:07:19;;;;;;;7.07;5.83;;;19.10;99.90;;;;;;5014989;28;20463;-80
2023/06/18 05:09:46;;;;;;;6.87;6.03;;;19.10;99.90;;;;;;5014719;28;20478;-80
2023/06/18 05:12:14;;;;;;;11.60;6.30;;;19.20;99.90;;;;;;5014827;28;20462;-80
2023/06/18 05:14:41;;;;;;;8.00;6.00;;;19.30;99.90;;;;;;5015493;28;20458;-80
2023/06/18 05:17:08;;;;;;;10.73;6.27;;;19.40;99.90;;;;;;5015238;28;20453;-80
2023/06/18 05:19:35;;;;;;;9.07;6.70;;;19.50;28.40;;;;;;5014246;28;20483;-82
2023/06/18 05:22:02;;;;;;;7.60;6.33;;;19.50;14.10;;;;;;5019757;28;20457;-79
2023/06/18 05:24:29;;;;;;;7.47;5.90;;;19.70;1.00;;;;;;5033908;28;20492;-80
2023/06/18 05:26:55;;;;;;;8.37;6.17;;;19.80;1.00;;;;;;5033845;28;20983;-80
2023/06/18 05:29:23;;;;;;;7.90;6.23;;;19.90;1.00;;;;;;5034535;28;20498;-80
2023/06/18 05:31:50;;;;;;;6.70;6.00;;;20.00;1.00;;;;;;5033180;28;20456;-79
2023/06/18 05:34:17;;;;;;;7.00;5.70;;;20.10;1.00;;;;;;5035234;28;20448;-81
2023/06/18 05:36:44;;;;;;;7.10;5.93;;;20.20;1.00;;;;;;5034592;28;20488;-81
2023/06/18 05:39:11;;;;;;;6.40;5.67;;;20.30;1.00;;;;;;5033752;28;20515;-80
2023/06/18 05:41:38;;;;;;;5.97;5.37;;;20.40;1.00;;;;;;5036468;28;20522;-81
2023/06/18 05:44:05;;;;;;;7.73;5.93;;;20.40;1.00;;;;;;5034909;28;20449;-80
2023/06/18 05:46:33;;;;;;;6.87;4.90;;;20.50;1.00;;;;;;5031722;28;20848;-81
2023/06/18 05:49:00;;;;;;;8.47;6.80;;;20.70;1.00;;;;;;5034044;28;20492;-80
2023/06/18 05:51:27;;;;;;;7.57;5.43;;;20.80;1.00;;;;;;5035359;28;20483;-80
2023/06/18 05:53:53;;;;;;;7.40;5.90;;;20.90;1.00;;;;;;5033961;28;20457;-83
2023/06/18 05:56:20;;;;;;;6.17;5.40;;;20.90;1.00;;;;;;5028718;28;21048;-82
2023/06/18 05:58:48;;;;;;;7.50;6.20;;;21.00;1.00;;;;;;5035345;28;20471;-81
2023/06/18 06:01:21;;;;;;;7.70;6.30;;;21.10;1.00;;;;;;5023135;28;20477;-80
2023/06/18 06:03:49;;;;;;;6.50;5.80;;;21.10;1.00;;;;;;5015431;28;20489;-83
2023/06/18 06:06:16;;;;;;;6.10;5.43;;;21.20;1.00;;;;;;5015268;28;20495;-78
2023/06/18 06:08:42;;;;;;;6.17;5.27;;;21.30;1.00;;;;;;5016842;28;20526;-83
2023/06/18 06:11:09;;;;;;;7.10;5.90;;;21.30;1.00;;;;;;5017152;28;20469;-82
2023/06/18 06:13:37;;;;;;;11.30;6.37;;;21.40;1.00;;;;;;5020068;28;20471;-83
2023/06/18 06:16:04;;;;;;;6.80;6.00;;;21.40;1.00;;;;;;5031982;28;20453;-82
2023/06/18 06:18:31;;;;;;;6.13;5.50;;;21.50;1.00;;;;;;5039009;28;20484;-82
2023/06/18 06:20:59;;;;;;;6.07;4.93;;;21.60;1.00;;;;;;5039128;28;20598;-83
2023/06/18 06:23:26;;;;;;;5.83;5.23;;;21.60;1.00;;;;;;5039389;28;20452;-82
2023/06/18 06:25:53;;;;;;;9.60;6.27;;;21.70;1.00;;;;;;5039027;28;21269;-81
2023/06/18 06:28:20;;;;;;;9.90;6.40;;;21.80;1.00;;;;;;5026740;28;20459;-82
2023/06/18 06:30:47;;;;;;;6.60;5.13;;;21.90;1.00;;;;;;5037707;28;20485;-81
2023/06/18 06:33:14;;;;;;;8.07;6.20;;;21.90;1.00;;;;;;5037207;28;20449;-82
2023/06/18 06:35:41;;;;;;;7.40;5.60;;;22.00;1.00;;;;;;5032895;28;20525;-81
2023/06/18 06:38:09;;;;;;;7.27;5.47;;;22.00;1.00;;;;;;5034231;28;21019;-82
2023/06/18 06:43:54;;;;;;;9.07;5.57;;;22.10;1.00;;;;;;4916977;29;20502;-80
2023/06/18 06:46:36;;;;;;;7.53;5.50;;;22.20;1.00;;;;;;4918063;29;20537;-81
2023/06/18 06:49:26;;;;;;;8.60;5.13;;;22.30;1.00;;;;;;4908096;29;20977;-79
2023/06/18 06:51:55;;;;;;;6.80;5.50;;;22.40;1.00;;;;;;4912881;28;20565;-81
2023/06/18 06:54:23;;;;;;;6.70;6.00;;;22.40;99.90;;;;;;5000076;28;20463;-83
2023/06/18 06:56:50;;;;;;;5.83;5.13;;;22.50;99.90;;;;;;5039216;28;20486;-84
2023/06/18 06:59:17;;;;;;;6.93;5.80;;;22.60;99.90;;;;;;5041933;28;20532;-84
2023/06/18 07:01:44;;;;;;;7.20;5.70;;;22.80;99.90;;;;;;5041533;28;20531;-84
2023/06/18 07:04:11;;;;;;;6.27;5.50;;;22.80;99.90;;;;;;5039642;28;20456;-84
2023/06/18 07:07:14;;;;;;;5.70;5.03;;;23.00;99.90;;;;;;5039851;28;20492;-84
2023/06/18 07:09:43;;;;;;;6.23;5.40;;;23.20;99.90;;;;;;5041043;28;20667;-85
2023/06/18 07:12:11;;;;;;;6.93;5.70;;;23.30;99.90;;;;;;5041392;28;20496;-85
2023/06/18 07:14:38;;;;;;;5.63;4.80;;;23.50;99.90;;;;;;5042140;28;20476;-86
2023/06/18 07:17:05;;;;;;;5.80;4.83;;;23.60;99.90;;;;;;5040795;28;20543;-86
2023/06/18 07:19:32;;;;;;;6.30;5.40;;;23.70;99.90;;;;;;5041764;28;21055;-85
2023/06/18 07:21:58;;;;;;;7.07;5.90;;;23.80;99.90;;;;;;5042880;28;20509;-85
2023/06/18 07:24:25;;;;;;;7.40;5.50;;;23.90;99.90;;;;;;5045428;28;20508;-85
2023/06/18 07:26:53;;;;;;;7.93;5.70;;;24.00;99.90;;;;;;5041088;28;21051;-84
2023/06/18 07:29:20;;;;;;;6.60;5.80;;;24.10;99.90;;;;;;5040155;28;20853;-85
2023/06/18 07:31:47;;;;;;;7.53;5.33;;;24.10;99.90;;;;;;5038826;28;20487;-84
2023/06/18 07:34:16;;;;;;;5.40;4.83;;;24.20;99.90;;;;;;5040255;28;20453;-86
2023/06/18 07:36:42;;;;;;;5.87;4.90;;;24.30;99.90;;;;;;5040031;28;20449;-84
2023/06/18 07:39:09;;;;;;;7.30;5.60;;;24.40;99.90;;;;;;5041094;28;20543;-85
2023/06/18 07:41:36;;;;;;;6.13;5.53;;;24.40;99.90;;;;;;5040557;28;20566;-85
2023/06/18 07:44:05;;;;;;;7.30;5.77;;;24.40;99.90;;;;;;5040203;28;20465;-85
2023/06/18 07:46:33;;;;;;;6.17;4.73;;;24.50;99.90;;;;;;5039668;28;20495;-85
2023/06/18 07:49:00;;;;;;;9.30;5.40;;;24.50;99.90;;;;;;5041112;28;20457;-85
2023/06/18 07:51:27;;;;;;;6.00;5.17;;;24.60;99.90;;;;;;5039861;28;20464;-85
2023/06/18 07:53:54;;;;;;;6.30;5.13;;;24.70;99.90;;;;;;5039803;28;20465;-84
2023/06/18 07:56:24;;;;;;;6.87;5.70;;;24.70;99.90;;;;;;5039231;28;20453;-85
2023/06/18 07:58:50;;;;;;;6.23;5.40;;;24.80;99.90;;;;;;5040150;28;20878;-84
2023/06/18 08:01:19;;;;;;;5.63;5.03;;;24.90;99.90;;;;;;5039702;28;20560;-85
2023/06/18 08:03:46;;;;;;;6.33;5.20;;;25.00;99.90;;;;;;5039978;28;20489;-85
2023/06/18 08:06:13;;;;;;;7.70;5.83;;;25.10;99.90;;;;;;5040510;28;20571;-86
2023/06/18 08:08:40;;;;;;;7.30;5.17;;;25.20;99.90;;;;;;5039988;28;20480;-84
2023/06/18 08:11:07;;;;;;;5.73;4.83;;;25.30;99.90;;;;;;5040025;28;20484;-84
2023/06/18 08:13:33;;;;;;;6.30;5.70;;;25.40;99.90;;;;;;5041741;28;20524;-85
2023/06/18 08:16:00;;;;;;;5.53;4.67;;;25.60;99.90;;;;;;5039883;28;20547;-85
2023/06/18 08:18:28;;;;;;;6.20;5.57;;;25.80;99.90;;;;;;5037343;28;20456;-82
2023/06/18 08:20:55;;;;;;;7.97;6.20;;;26.00;99.90;;;;;;5040650;28;20477;-84
2023/06/18 08:23:22;;;;;;;6.13;5.17;;;26.10;99.90;;;;;;5033668;28;20504;-84
2023/06/18 08:25:49;;;;;;;6.30;5.10;;;26.20;99.90;;;;;;5031070;28;20506;-83
2023/06/18 08:28:16;;;;;;;5.10;4.60;;;26.40;99.90;;;;;;5037039;28;20449;-82
2023/06/18 08:30:43;;;;;;;7.87;5.27;;;26.40;99.90;;;;;;5037345;28;20515;-82
2023/06/18 08:33:10;;;;;;;5.90;5.17;;;26.50;99.90;;;;;;5036688;28;20453;-83
2023/06/18 08:35:38;;;;;;;7.40;5.90;;;26.70;99.90;;;;;;5035164;28;20457;-82
2023/06/18 08:38:05;;;;;;;5.80;5.20;;;26.80;99.90;;;;;;5038608;28;20531;-84
2023/06/18 08:40:37;;;;;;;5.57;4.90;;;26.90;99.90;;;;;;5038016;28;20558;-81
2023/06/18 08:43:09;;;;;;;8.03;5.80;;;27.00;99.90;;;;;;5043686;28;20467;-83
2023/06/18 08:45:36;;;;;;;5.70;5.10;;;27.20;99.90;;;;;;5042488;28;20472;-84
2023/06/18 08:48:07;;;;;;;6.83;5.77;;;27.50;99.90;;;;;;5047024;28;20956;-83
2023/06/18 08:50:36;;;;;;;6.57;5.17;;;27.60;99.90;;;;;;5017793;28;21016;-83
2023/06/18 08:53:12;;;;;;;5.30;4.80;;;27.80;99.90;;;;;;5031038;28;20464;-82
2023/06/18 08:55:40;;;;;;;5.60;4.80;;;27.90;99.90;;;;;;5034673;28;20429;-83
2023/06/18 08:58:13;;;;;;;5.20;4.70;;;28.20;99.90;;;;;;5039479;28;20519;-84
2023/06/18 09:00:40;;;;;;;6.00;5.37;;;28.10;99.90;;;;;;5019203;28;21017;-84
2023/06/18 09:03:08;;;;;;;8.03;5.60;;;28.30;99.90;;;;;;5037961;28;20541;-84
2023/06/18 09:05:35;;;;;;;6.60;4.90;;;28.30;99.90;;;;;;5038125;28;20480;-84
2023/06/18 09:08:04;;;;;;;5.50;4.77;;;28.50;99.90;;;;;;5037590;28;20464;-82
2023/06/18 09:10:31;;;;;;;6.60;5.20;;;28.60;99.90;;;;;;5036984;28;20482;-83
2023/06/18 09:12:58;;;;;;;6.60;5.17;;;28.40;99.90;;;;;;5036869;28;20499;-83
2023/06/18 09:15:25;;;;;;;6.23;5.03;;;28.60;99.90;;;;;;5036737;28;20520;-83
2023/06/18 09:17:52;;;;;;;6.03;4.97;;;28.80;99.90;;;;;;5037313;28;20456;-83
2023/06/18 09:20:20;;;;;;;4.83;4.37;;;28.90;99.90;;;;;;5037298;28;20473;-85
2023/06/18 09:22:48;;;;;;;6.50;4.70;;;29.10;99.90;;;;;;5037490;28;20452;-83
2023/06/18 09:25:20;;;;;;;6.00;5.40;;;29.10;99.90;;;;;;5037225;28;20456;-82
2023/06/18 09:27:48;;;;;;;6.50;5.73;;;29.40;99.90;;;;;;5036765;28;20458;-84
2023/06/18 09:30:19;;;;;;;6.63;5.73;;;29.60;99.90;;;;;;5039882;28;20472;-82
2023/06/18 09:32:47;;;;;;;7.50;4.90;;;29.80;99.90;;;;;;5047988;22;20498;-84
2023/06/18 09:35:15;;;;;;;5.80;5.23;;;30.00;99.90;;;;;;5021169;28;20457;-82
2023/06/18 09:37:42;;;;;;;5.73;5.00;;;30.10;99.90;;;;;;5027631;28;20884;-83
2023/06/18 09:40:14;;;;;;;6.33;4.93;;;30.10;99.90;;;;;;5029462;28;21065;-83
2023/06/18 09:42:44;;;;;;;5.47;4.80;;;30.30;99.90;;;;;;5032660;28;20458;-83
2023/06/18 09:45:11;;;;;;;5.50;4.93;;;30.30;99.90;;;;;;5023505;28;20452;-83
2023/06/18 09:47:38;;;;;;;6.00;4.90;;;30.30;99.90;;;;;;5025899;28;20480;-82
2023/06/18 09:50:07;;;;;;;5.83;5.23;;;30.20;99.90;;;;;;5026440;28;20544;-82
2023/06/18 09:52:43;;;;;;;5.87;5.27;;;30.20;99.90;;;;;;5026393;28;20473;-82
2023/06/18 09:55:27;;;;;;;5.80;4.60;;;30.10;99.90;;;;;;5026537;28;20510;-83
2023/06/18 09:57:55;;;;;;;5.47;4.63;;;30.10;99.90;;;;;;5028309;28;20441;-82
2023/06/18 10:00:23;;;;;;;4.60;4.20;;;30.00;99.90;;;;;;5028730;28;20449;-83
2023/06/18 10:02:49;;;;;;;5.47;4.90;;;29.70;99.90;;;;;;5027174;28;20469;-85
2023/06/18 10:05:16;;;;;;;5.70;4.47;;;30.00;99.90;;;;;;5028264;28;20480;-81
2023/06/18 10:07:44;;;;;;;5.70;5.17;;;30.20;99.90;;;;;;5027506;28;20481;-83
2023/06/18 10:10:14;;;;;;;5.83;5.23;;;30.60;99.90;;;;;;5027298;28;20445;-82
2023/06/18 10:12:42;;;;;;;4.97;4.50;;;31.00;99.90;;;;;;5026835;28;20461;-81
2023/06/18 10:15:12;;;;;;;5.60;5.00;;;31.20;99.90;;;;;;5027291;28;20525;-81
2023/06/18 10:17:44;;;;;;;7.53;4.37;;;31.40;99.90;;;;;;5028912;28;20442;-81
2023/06/18 10:20:14;;;;;;;4.83;4.30;;;31.00;99.90;;;;;;5029048;28;20445;-84
2023/06/18 10:22:45;;;;;;;4.97;4.57;;;31.40;99.90;;;;;;5019974;28;21051;-83
2023/06/18 10:25:13;;;;;;;5.90;5.10;;;31.30;99.90;;;;;;5028198;28;20438;-81
2023/06/18 10:27:40;;;;;;;5.47;4.47;;;31.60;99.90;;;;;;5029494;28;20563;-82
2023/06/18 10:30:08;;;;;;;5.13;4.40;;;31.90;99.90;;;;;;5029184;28;20485;-83
2023/06/18 10:32:37;;;;;;;5.53;4.97;;;31.90;99.90;;;;;;5028944;28;20489;-83
2023/06/18 10:35:08;;;;;;;5.27;4.77;;;32.10;99.90;;;;;;5032164;28;20476;-82
2023/06/18 10:37:35;;;;;;;5.20;4.70;;;32.30;99.90;;;;;;5011562;28;20965;-83
2023/06/18 10:40:03;;;;;;;6.83;4.60;;;32.40;99.90;;;;;;5009496;28;20497;-83
2023/06/18 10:42:32;;;;;;;7.93;4.43;;;32.10;99.90;;;;;;5009139;28;20668;-83
2023/06/18 10:45:02;;;;;;;5.70;4.63;;;32.00;99.90;;;;;;5009156;28;20455;-82
2023/06/18 10:47:30;;;;;;;5.40;4.80;;;32.20;99.90;;;;;;5009149;28;20486;-81
2023/06/18 10:50:13;;;;;;;5.20;4.70;;;32.20;99.90;;;;;;5014230;28;20457;-82
2023/06/18 10:52:41;;;;;;;5.27;4.53;;;32.10;99.90;;;;;;5010671;28;20490;-83
2023/06/18 10:55:09;;;;;;;5.30;4.80;;;32.40;99.90;;;;;;5004478;28;20450;-83
2023/06/18 10:57:37;;;;;;;6.97;4.33;;;32.50;99.90;;;;;;5012360;28;20482;-84
2023/06/18 11:00:15;;;;;;;5.93;4.67;;;32.60;99.90;;;;;;5005367;28;20474;-81
2023/06/18 11:02:42;;;;;;;5.63;4.43;;;32.70;99.90;;;;;;5007422;28;20927;-81
2023/06/18 11:05:16;;;;;;;7.10;4.70;;;32.70;99.90;;;;;;5007378;28;20519;-81
2023/06/18 11:07:43;;;;;;;6.27;4.30;;;32.70;99.90;;;;;;5008149;28;20493;-81
2023/06/18 11:10:10;;;;;;;4.53;4.13;;;32.60;99.90;;;;;;5006779;28;20459;-81
2023/06/18 11:12:38;;;;;;;5.10;4.60;;;32.50;99.90;;;;;;5011536;28;20474;-82
2023/06/18 11:15:23;;;;;;;5.60;4.63;;;32.30;99.90;;;;;;5010614;28;20446;-79
2023/06/18 11:17:52;;;;;;;4.57;4.07;;;32.30;99.90;;;;;;5006308;28;20481;-81
2023/06/18 11:20:21;;;;;;;4.90;4.13;;;31.80;99.90;;;;;;5011197;28;20450;-83
2023/06/18 11:22:54;;;;;;;4.50;4.00;;;31.80;99.90;;;;;;4992402;28;20527;-82
2023/06/18 11:25:21;;;;;;;5.10;4.23;;;31.60;99.90;;;;;;5015258;28;20461;-80
2023/06/18 11:27:48;;;;;;;6.33;4.43;;;31.50;99.90;;;;;;5019285;28;20569;-81
2023/06/18 11:30:17;;;;;;;4.90;4.23;;;31.60;99.90;;;;;;5009373;28;20517;-82
2023/06/18 11:32:45;;;;;;;4.27;3.87;;;31.70;99.90;;;;;;5028796;28;20508;-81
2023/06/18 11:35:14;;;;;;;5.43;4.20;;;32.30;99.90;;;;;;5010047;28;20483;-79
2023/06/18 11:37:44;;;;;;;5.50;4.10;;;33.10;99.90;;;;;;5009756;28;20442;-82
2023/06/18 11:40:11;;;;;;;4.77;4.33;;;33.40;99.90;;;;;;4990606;28;20519;-84
2023/06/18 11:42:46;;;;;;;5.33;4.70;;;34.00;99.90;;;;;;5014074;28;20533;-83
2023/06/18 11:45:13;;;;;;;8.13;4.97;;;34.50;99.90;;;;;;5027580;28;20453;-83
2023/06/18 11:47:46;;;;;;;4.60;4.07;;;34.40;99.90;;;;;;5012052;28;20478;-82
2023/06/18 11:50:13;;;;;;;5.70;4.70;;;34.50;99.90;;;;;;5006200;28;20463;-82
2023/06/18 11:52:43;;;;;;;5.63;4.87;;;34.70;99.90;;;;;;5008059;28;20510;-83
2023/06/18 11:55:10;;;;;;;6.60;5.57;;;34.70;99.90;;;;;;5004123;28;20447;-83
2023/06/18 11:57:37;;;;;;;5.97;4.27;;;34.90;99.90;;;;;;5008948;28;20443;-83
2023/06/18 12:00:08;;;;;;;7.03;5.53;;;34.90;99.90;;;;;;5008381;28;20455;-81
2023/06/18 12:02:37;;;;;;;6.83;4.50;;;34.80;99.90;;;;;;5007842;28;20486;-82
2023/06/18 12:05:05;;;;;;;5.50;4.40;;;35.20;99.90;;;;;;5008010;28;20464;-82
2023/06/18 12:07:33;;;;;;;5.20;4.70;;;35.40;99.90;;;;;;5021846;28;20553;-82
2023/06/18 12:10:07;;;;;;;5.30;4.60;;;35.10;99.90;;;;;;5014544;28;20461;-83
2023/06/18 12:12:41;;;;;;;5.83;4.27;;;35.00;99.90;;;;;;5005726;28;20556;-82
2023/06/18 12:15:16;;;;;;;5.00;4.50;;;34.60;99.90;;;;;;5007129;28;20522;-83
2023/06/18 12:17:55;;;;;;;4.87;4.47;;;34.40;99.90;;;;;;5007998;28;20457;-82
2023/06/18 12:20:24;;;;;;;5.77;4.57;;;34.10;99.90;;;;;;5011010;28;20445;-82
2023/06/18 12:22:51;;;;;;;5.10;4.50;;;34.20;99.90;;;;;;5010428;28;20486;-80
2023/06/18 12:25:23;;;;;;;5.20;4.70;;;34.40;99.90;;;;;;5027783;28;20509;-82
2023/06/18 12:27:51;;;;;;;5.37;4.43;;;34.10;99.90;;;;;;5012351;28;20478;-81
2023/06/18 12:30:18;;;;;;;5.60;4.20;;;34.00;99.90;;;;;;5009151;28;20462;-81
2023/06/18 12:33:01;;;;;;;6.83;4.50;;;34.20;99.90;;;;;;5007348;28;20574;-80
2023/06/18 12:35:28;;;;;;;5.33;4.43;;;34.30;99.90;;;;;;5005573;28;20510;-81
2023/06/18 12:38:01;;;;;;;5.47;4.57;;;34.60;99.90;;;;;;5010131;28;20447;-81
2023/06/18 12:40:29;;;;;;;4.97;4.10;;;34.40;99.90;;;;;;5025420;28;20485;-81
2023/06/18 12:42:56;;;;;;;4.73;4.20;;;34.40;99.90;;;;;;5014457;28;20494;-81
2023/06/18 12:45:25;;;;;;;4.57;4.10;;;34.00;99.90;;;;;;5026535;28;20761;-81
2023/06/18 12:47:52;;;;;;;5.83;5.23;;;33.80;99.90;;;;;;5010653;28;20485;-81
2023/06/18 12:50:41;;;;;;;5.37;4.87;;;33.30;99.90;;;;;;5006175;28;20486;-79
2023/06/18 12:53:14;;;;;;;5.50;4.90;;;33.50;99.90;;;;;;5011938;28;20538;-81
2023/06/18 12:55:42;;;;;;;5.60;5.10;;;33.80;99.90;;;;;;5017121;28;20450;-83
2023/06/18 12:58:16;;;;;;;5.70;4.83;;;34.00;99.90;;;;;;5005929;28;20864;-83